Monday, May 6, 2013

20 Years Later, an Airport Reopens

KFAM 062255Z AUTO 03006KT 10SM FEW065 OVC085 18/12 A2997

The Bonne Terre Airport has reopened.

I overflew it last winter and it looked like what it was, at the time: A long-closed airport. I hope they can make it work.

1 comment:

Toriafly said...

Rare to hear of an airport actually reopening! I hope it is successful-thanks for sharing!